sensor_id;sensor_type;location;lat;lon;timestamp;temperature;humidity
68511;SHT31;55512;50.102;19.958;2023-05-20T00:02:02;13.19;75.05
68511;SHT31;55512;50.102;19.958;2023-05-20T00:04:27;13.20;75.05
68511;SHT31;55512;50.102;19.958;2023-05-20T00:06:52;13.21;75.09
68511;SHT31;55512;50.102;19.958;2023-05-20T00:09:19;13.20;75.10
68511;SHT31;55512;50.102;19.958;2023-05-20T00:11:45;13.21;75.11
68511;SHT31;55512;50.102;19.958;2023-05-20T00:14:11;13.22;75.11
68511;SHT31;55512;50.102;19.958;2023-05-20T00:16:36;13.22;75.12
68511;SHT31;55512;50.102;19.958;2023-05-20T00:19:02;13.23;75.12
68511;SHT31;55512;50.102;19.958;2023-05-20T00:21:28;13.22;75.16
68511;SHT31;55512;50.102;19.958;2023-05-20T00:26:28;13.23;75.20
68511;SHT31;55512;50.102;19.958;2023-05-20T00:28:53;13.22;75.20
68511;SHT31;55512;50.102;19.958;2023-05-20T00:31:19;13.23;75.27
68511;SHT31;55512;50.102;19.958;2023-05-20T00:33:45;13.24;75.27
68511;SHT31;55512;50.102;19.958;2023-05-20T00:36:11;13.23;75.31
68511;SHT31;55512;50.102;19.958;2023-05-20T00:38:36;13.24;75.37
68511;SHT31;55512;50.102;19.958;2023-05-20T00:41:02;13.24;75.39
68511;SHT31;55512;50.102;19.958;2023-05-20T00:43:27;13.24;75.44
68511;SHT31;55512;50.102;19.958;2023-05-20T00:45:53;13.22;75.46
68511;SHT31;55512;50.102;19.958;2023-05-20T00:48:19;13.23;75.50
68511;SHT31;55512;50.102;19.958;2023-05-20T00:50:46;13.23;75.51
68511;SHT31;55512;50.102;19.958;2023-05-20T00:53:15;13.23;75.60
68511;SHT31;55512;50.102;19.958;2023-05-20T00:55:42;13.23;75.60
68511;SHT31;55512;50.102;19.958;2023-05-20T00:58:10;13.22;75.65
68511;SHT31;55512;50.102;19.958;2023-05-20T01:00:36;13.22;75.70
68511;SHT31;55512;50.102;19.958;2023-05-20T01:03:03;13.22;75.70
68511;SHT31;55512;50.102;19.958;2023-05-20T01:05:29;13.22;75.78
68511;SHT31;55512;50.102;19.958;2023-05-20T01:07:54;13.22;75.85
68511;SHT31;55512;50.102;19.958;2023-05-20T01:10:21;13.21;75.91
68511;SHT31;55512;50.102;19.958;2023-05-20T01:12:53;13.20;75.98
68511;SHT31;55512;50.102;19.958;2023-05-20T01:15:24;13.20;76.05
68511;SHT31;55512;50.102;19.958;2023-05-20T01:17:54;13.19;76.12
68511;SHT31;55512;50.102;19.958;2023-05-20T01:20:25;13.18;76.19
68511;SHT31;55512;50.102;19.958;2023-05-20T01:22:58;13.18;76.24
68511;SHT31;55512;50.102;19.958;2023-05-20T01:25:24;13.16;76.35
68511;SHT31;55512;50.102;19.958;2023-05-20T01:27:50;13.15;76.40
68511;SHT31;55512;50.102;19.958;2023-05-20T01:30:18;13.15;76.48
68511;SHT31;55512;50.102;19.958;2023-05-20T01:33:03;13.15;76.52
68511;SHT31;55512;50.102;19.958;2023-05-20T01:35:33;13.14;76.59
68511;SHT31;55512;50.102;19.958;2023-05-20T01:38:00;13.15;76.62
68511;SHT31;55512;50.102;19.958;2023-05-20T01:40:29;13.15;76.70
68511;SHT31;55512;50.102;19.958;2023-05-20T01:42:56;13.15;76.73
68511;SHT31;55512;50.102;19.958;2023-05-20T01:45:23;13.15;76.79
68511;SHT31;55512;50.102;19.958;2023-05-20T01:47:50;13.14;76.81
68511;SHT31;55512;50.102;19.958;2023-05-20T01:50:15;13.15;76.81
68511;SHT31;55512;50.102;19.958;2023-05-20T01:52:41;13.15;76.88
68511;SHT31;55512;50.102;19.958;2023-05-20T01:55:07;13.15;76.89
68511;SHT31;55512;50.102;19.958;2023-05-20T01:57:33;13.14;76.94
68511;SHT31;55512;50.102;19.958;2023-05-20T01:59:59;13.14;76.99
68511;SHT31;55512;50.102;19.958;2023-05-20T02:02:26;13.13;77.00
68511;SHT31;55512;50.102;19.958;2023-05-20T02:04:52;13.13;77.06
68511;SHT31;55512;50.102;19.958;2023-05-20T02:07:18;13.13;77.10
68511;SHT31;55512;50.102;19.958;2023-05-20T02:09:44;13.13;77.11
68511;SHT31;55512;50.102;19.958;2023-05-20T02:12:11;13.14;77.20
68511;SHT31;55512;50.102;19.958;2023-05-20T02:14:44;13.15;77.19
68511;SHT31;55512;50.102;19.958;2023-05-20T02:17:12;13.15;77.23
68511;SHT31;55512;50.102;19.958;2023-05-20T02:19:41;13.15;77.30
68511;SHT31;55512;50.102;19.958;2023-05-20T02:22:08;13.16;77.30
68511;SHT31;55512;50.102;19.958;2023-05-20T02:24:33;13.16;77.30
68511;SHT31;55512;50.102;19.958;2023-05-20T02:26:59;13.18;77.30
68511;SHT31;55512;50.102;19.958;2023-05-20T02:29:25;13.18;77.30
68511;SHT31;55512;50.102;19.958;2023-05-20T02:31:51;13.19;77.30
68511;SHT31;55512;50.102;19.958;2023-05-20T02:34:17;13.19;77.30
68511;SHT31;55512;50.102;19.958;2023-05-20T02:36:42;13.21;77.30
68511;SHT31;55512;50.102;19.958;2023-05-20T02:39:08;13.21;77.30
68511;SHT31;55512;50.102;19.958;2023-05-20T02:41:34;13.22;77.30
68511;SHT31;55512;50.102;19.958;2023-05-20T02:44:00;13.22;77.30
68511;SHT31;55512;50.102;19.958;2023-05-20T02:46:26;13.20;77.35
68511;SHT31;55512;50.102;19.958;2023-05-20T02:48:51;13.20;77.40
68511;SHT31;55512;50.102;19.958;2023-05-20T02:51:17;13.21;77.40
68511;SHT31;55512;50.102;19.958;2023-05-20T02:53:42;13.20;77.40
68511;SHT31;55512;50.102;19.958;2023-05-20T02:56:08;13.20;77.44
68511;SHT31;55512;50.102;19.958;2023-05-20T02:58:33;13.19;77.43
68511;SHT31;55512;50.102;19.958;2023-05-20T03:01:00;13.24;77.37
68511;SHT31;55512;50.102;19.958;2023-05-20T03:03:26;13.23;77.34
68511;SHT31;55512;50.102;19.958;2023-05-20T03:05:52;13.21;77.42
68511;SHT31;55512;50.102;19.958;2023-05-20T03:08:18;13.21;77.41
68511;SHT31;55512;50.102;19.958;2023-05-20T03:10:46;13.21;77.42
68511;SHT31;55512;50.102;19.958;2023-05-20T03:13:12;13.20;77.48
68511;SHT31;55512;50.102;19.958;2023-05-20T03:15:39;13.19;77.50
68511;SHT31;55512;50.102;19.958;2023-05-20T03:18:06;13.21;77.48
68511;SHT31;55512;50.102;19.958;2023-05-20T03:20:34;13.24;77.43
68511;SHT31;55512;50.102;19.958;2023-05-20T03:23:01;13.26;77.40
68511;SHT31;55512;50.102;19.958;2023-05-20T03:25:27;13.26;77.40
68511;SHT31;55512;50.102;19.958;2023-05-20T03:27:53;13.28;77.40
68511;SHT31;55512;50.102;19.958;2023-05-20T03:30:19;13.28;77.40
68511;SHT31;55512;50.102;19.958;2023-05-20T03:32:45;13.27;77.49
68511;SHT31;55512;50.102;19.958;2023-05-20T03:35:11;13.28;77.50
68511;SHT31;55512;50.102;19.958;2023-05-20T03:37:37;13.29;77.49
68511;SHT31;55512;50.102;19.958;2023-05-20T03:40:02;13.31;77.50
68511;SHT31;55512;50.102;19.958;2023-05-20T03:42:30;13.33;77.50
68511;SHT31;55512;50.102;19.958;2023-05-20T03:44:57;13.35;77.50
68511;SHT31;55512;50.102;19.958;2023-05-20T03:47:24;13.38;77.50
68511;SHT31;55512;50.102;19.958;2023-05-20T03:49:50;13.40;77.50
68511;SHT31;55512;50.102;19.958;2023-05-20T03:52:16;13.43;77.48
68511;SHT31;55512;50.102;19.958;2023-05-20T03:54:42;13.46;77.46
68511;SHT31;55512;50.102;19.958;2023-05-20T03:57:07;13.49;77.45
68511;SHT31;55512;50.102;19.958;2023-05-20T03:59:34;13.53;77.40
68511;SHT31;55512;50.102;19.958;2023-05-20T04:02:01;13.56;77.34
68511;SHT31;55512;50.102;19.958;2023-05-20T04:04:28;13.58;77.31
68511;SHT31;55512;50.102;19.958;2023-05-20T04:06:54;13.58;77.33
68511;SHT31;55512;50.102;19.958;2023-05-20T04:09:20;13.57;77.37
68511;SHT31;55512;50.102;19.958;2023-05-20T04:11:46;13.59;77.38
68511;SHT31;55512;50.102;19.958;2023-05-20T04:14:12;13.60;77.36
68511;SHT31;55512;50.102;19.958;2023-05-20T04:16:39;13.60;77.34
68511;SHT31;55512;50.102;19.958;2023-05-20T04:19:05;13.61;77.30
68511;SHT31;55512;50.102;19.958;2023-05-20T04:21:31;13.65;77.30
68511;SHT31;55512;50.102;19.958;2023-05-20T04:23:57;13.68;77.30
68511;SHT31;55512;50.102;19.958;2023-05-20T04:26:22;13.71;77.31
68511;SHT31;55512;50.102;19.958;2023-05-20T04:28:48;13.75;77.30
68511;SHT31;55512;50.102;19.958;2023-05-20T04:31:14;13.78;77.30
68511;SHT31;55512;50.102;19.958;2023-05-20T04:33:40;13.81;77.30
68511;SHT31;55512;50.102;19.958;2023-05-20T04:36:09;13.85;77.29
68511;SHT31;55512;50.102;19.958;2023-05-20T04:38:39;13.87;77.29
68511;SHT31;55512;50.102;19.958;2023-05-20T04:41:06;13.90;77.29
68511;SHT31;55512;50.102;19.958;2023-05-20T04:43:33;13.91;77.29
68511;SHT31;55512;50.102;19.958;2023-05-20T04:45:58;13.91;77.28
68511;SHT31;55512;50.102;19.958;2023-05-20T04:48:25;13.94;77.31
68511;SHT31;55512;50.102;19.958;2023-05-20T04:50:51;13.96;77.34
68511;SHT31;55512;50.102;19.958;2023-05-20T04:53:18;13.97;77.38
68511;SHT31;55512;50.102;19.958;2023-05-20T04:55:46;14.00;77.39
68511;SHT31;55512;50.102;19.958;2023-05-20T04:58:12;14.03;77.40
68511;SHT31;55512;50.102;19.958;2023-05-20T05:00:41;14.05;77.41
68511;SHT31;55512;50.102;19.958;2023-05-20T05:03:08;14.08;77.43
68511;SHT31;55512;50.102;19.958;2023-05-20T05:05:40;14.12;77.49
68511;SHT31;55512;50.102;19.958;2023-05-20T05:08:06;14.16;77.50
68511;SHT31;55512;50.102;19.958;2023-05-20T05:10:34;14.19;77.50
68511;SHT31;55512;50.102;19.958;2023-05-20T05:13:00;14.23;77.50
68511;SHT31;55512;50.102;19.958;2023-05-20T05:15:26;14.25;77.50
68511;SHT31;55512;50.102;19.958;2023-05-20T05:17:52;14.28;77.50
68511;SHT31;55512;50.102;19.958;2023-05-20T05:20:18;14.32;77.50
68511;SHT31;55512;50.102;19.958;2023-05-20T05:22:44;14.36;77.57
68511;SHT31;55512;50.102;19.958;2023-05-20T05:25:10;14.39;77.60
68511;SHT31;55512;50.102;19.958;2023-05-20T05:27:37;14.43;77.60
68511;SHT31;55512;50.102;19.958;2023-05-20T05:30:03;14.48;77.60
68511;SHT31;55512;50.102;19.958;2023-05-20T05:32:32;14.52;77.60
68511;SHT31;55512;50.102;19.958;2023-05-20T05:34:58;14.55;77.60
68511;SHT31;55512;50.102;19.958;2023-05-20T05:37:23;14.59;77.60
68511;SHT31;55512;50.102;19.958;2023-05-20T05:39:49;14.61;77.62
68511;SHT31;55512;50.102;19.958;2023-05-20T05:42:14;14.65;77.67
68511;SHT31;55512;50.102;19.958;2023-05-20T05:44:40;14.69;77.70
68511;SHT31;55512;50.102;19.958;2023-05-20T05:47:06;14.72;77.70
68511;SHT31;55512;50.102;19.958;2023-05-20T05:49:32;14.74;77.71
68511;SHT31;55512;50.102;19.958;2023-05-20T05:51:58;14.78;77.73
68511;SHT31;55512;50.102;19.958;2023-05-20T05:54:24;14.82;77.72
68511;SHT31;55512;50.102;19.958;2023-05-20T05:56:50;14.84;77.70
68511;SHT31;55512;50.102;19.958;2023-05-20T05:59:16;14.87;77.70
68511;SHT31;55512;50.102;19.958;2023-05-20T06:01:43;14.90;77.73
68511;SHT31;55512;50.102;19.958;2023-05-20T06:04:09;14.94;77.79
68511;SHT31;55512;50.102;19.958;2023-05-20T06:06:34;14.99;77.78
68511;SHT31;55512;50.102;19.958;2023-05-20T06:09:00;15.03;77.72
68511;SHT31;55512;50.102;19.958;2023-05-20T06:11:25;15.08;77.71
68511;SHT31;55512;50.102;19.958;2023-05-20T06:13:51;15.13;77.71
68511;SHT31;55512;50.102;19.958;2023-05-20T06:16:17;15.18;77.70
68511;SHT31;55512;50.102;19.958;2023-05-20T06:18:44;15.23;77.70
68511;SHT31;55512;50.102;19.958;2023-05-20T06:21:10;15.27;77.70
68511;SHT31;55512;50.102;19.958;2023-05-20T06:23:36;15.32;77.67
68511;SHT31;55512;50.102;19.958;2023-05-20T06:26:02;15.38;77.60
68511;SHT31;55512;50.102;19.958;2023-05-20T06:28:28;15.42;77.58
68511;SHT31;55512;50.102;19.958;2023-05-20T06:30:54;15.47;77.52
68511;SHT31;55512;50.102;19.958;2023-05-20T06:33:24;15.53;77.50
68511;SHT31;55512;50.102;19.958;2023-05-20T06:35:55;15.60;77.49
68511;SHT31;55512;50.102;19.958;2023-05-20T06:38:22;15.68;77.41
68511;SHT31;55512;50.102;19.958;2023-05-20T06:40:47;15.74;77.30
68511;SHT31;55512;50.102;19.958;2023-05-20T06:43:14;15.78;77.24
68511;SHT31;55512;50.102;19.958;2023-05-20T06:45:40;15.84;77.20
68511;SHT31;55512;50.102;19.958;2023-05-20T06:48:06;15.90;77.12
68511;SHT31;55512;50.102;19.958;2023-05-20T06:50:31;15.94;77.03
68511;SHT31;55512;50.102;19.958;2023-05-20T06:52:57;15.99;76.94
68511;SHT31;55512;50.102;19.958;2023-05-20T06:55:23;16.05;76.84
68511;SHT31;55512;50.102;19.958;2023-05-20T06:57:48;16.09;76.76
68511;SHT31;55512;50.102;19.958;2023-05-20T07:00:14;16.16;76.70
68511;SHT31;55512;50.102;19.958;2023-05-20T07:02:40;16.21;76.62
68511;SHT31;55512;50.102;19.958;2023-05-20T07:05:07;16.29;76.55
68511;SHT31;55512;50.102;19.958;2023-05-20T07:07:33;16.33;76.50
68511;SHT31;55512;50.102;19.958;2023-05-20T07:10:00;16.37;76.50
68511;SHT31;55512;50.102;19.958;2023-05-20T07:12:25;16.42;76.43
68511;SHT31;55512;50.102;19.958;2023-05-20T07:14:51;16.45;76.32
68511;SHT31;55512;50.102;19.958;2023-05-20T07:17:17;16.49;76.18
68511;SHT31;55512;50.102;19.958;2023-05-20T07:19:42;16.53;76.09
68511;SHT31;55512;50.102;19.958;2023-05-20T07:22:08;16.56;76.00
68511;SHT31;55512;50.102;19.958;2023-05-20T07:24:34;16.59;75.97
68511;SHT31;55512;50.102;19.958;2023-05-20T07:27:00;16.66;75.87
68511;SHT31;55512;50.102;19.958;2023-05-20T07:29:26;16.73;75.80
68511;SHT31;55512;50.102;19.958;2023-05-20T07:31:52;16.80;75.73
68511;SHT31;55512;50.102;19.958;2023-05-20T07:37:17;16.93;75.40
68511;SHT31;55512;50.102;19.958;2023-05-20T07:39:43;17.02;75.16
68511;SHT31;55512;50.102;19.958;2023-05-20T07:42:09;17.08;74.98
68511;SHT31;55512;50.102;19.958;2023-05-20T07:44:34;17.11;74.86
68511;SHT31;55512;50.102;19.958;2023-05-20T07:47:00;17.17;74.72
68511;SHT31;55512;50.102;19.958;2023-05-20T07:49:26;17.22;74.65
68511;SHT31;55512;50.102;19.958;2023-05-20T07:51:52;17.29;74.52
68511;SHT31;55512;50.102;19.958;2023-05-20T07:54:18;17.35;74.33
68511;SHT31;55512;50.102;19.958;2023-05-20T07:56:43;17.41;74.16
68511;SHT31;55512;50.102;19.958;2023-05-20T07:59:10;17.45;74.06
68511;SHT31;55512;50.102;19.958;2023-05-20T08:01:35;17.45;74.00
68511;SHT31;55512;50.102;19.958;2023-05-20T08:04:01;17.49;73.96
68511;SHT31;55512;50.102;19.958;2023-05-20T08:06:27;17.55;73.85
68511;SHT31;55512;50.102;19.958;2023-05-20T08:08:53;17.59;73.79
68511;SHT31;55512;50.102;19.958;2023-05-20T08:11:19;17.64;73.68
68511;SHT31;55512;50.102;19.958;2023-05-20T08:13:46;17.67;73.62
68511;SHT31;55512;50.102;19.958;2023-05-20T08:16:12;17.70;73.55
68511;SHT31;55512;50.102;19.958;2023-05-20T08:18:38;17.72;73.48
68511;SHT31;55512;50.102;19.958;2023-05-20T08:21:04;17.73;73.43
68511;SHT31;55512;50.102;19.958;2023-05-20T08:23:34;17.76;73.37
68511;SHT31;55512;50.102;19.958;2023-05-20T08:26:00;17.80;73.29
68511;SHT31;55512;50.102;19.958;2023-05-20T08:28:27;17.87;73.18
68511;SHT31;55512;50.102;19.958;2023-05-20T08:30:54;17.92;73.04
68511;SHT31;55512;50.102;19.958;2023-05-20T08:33:19;17.97;72.94
68511;SHT31;55512;50.102;19.958;2023-05-20T08:35:46;18.03;72.93
68511;SHT31;55512;50.102;19.958;2023-05-20T08:38:13;18.09;72.71
68511;SHT31;55512;50.102;19.958;2023-05-20T08:40:39;18.10;72.60
68511;SHT31;55512;50.102;19.958;2023-05-20T08:43:05;18.13;72.57
68511;SHT31;55512;50.102;19.958;2023-05-20T08:45:32;18.18;72.40
68511;SHT31;55512;50.102;19.958;2023-05-20T08:48:01;18.22;72.29
68511;SHT31;55512;50.102;19.958;2023-05-20T08:50:29;18.26;72.22
68511;SHT31;55512;50.102;19.958;2023-05-20T08:52:55;18.33;72.03
68511;SHT31;55512;50.102;19.958;2023-05-20T08:55:25;18.38;71.88
68511;SHT31;55512;50.102;19.958;2023-05-20T08:58:01;18.42;71.73
68511;SHT31;55512;50.102;19.958;2023-05-20T09:00:28;18.43;71.62
68511;SHT31;55512;50.102;19.958;2023-05-20T09:05:45;18.53;71.32
68511;SHT31;55512;50.102;19.958;2023-05-20T09:08:12;18.55;71.23
68511;SHT31;55512;50.102;19.958;2023-05-20T09:10:38;18.56;71.20
68511;SHT31;55512;50.102;19.958;2023-05-20T09:13:06;18.60;71.08
68511;SHT31;55512;50.102;19.958;2023-05-20T09:15:33;18.63;70.90
68511;SHT31;55512;50.102;19.958;2023-05-20T09:18:01;18.60;70.76
68511;SHT31;55512;50.102;19.958;2023-05-20T09:20:29;18.63;70.82
68511;SHT31;55512;50.102;19.958;2023-05-20T09:22:59;18.70;70.79
68511;SHT31;55512;50.102;19.958;2023-05-20T09:25:27;18.77;70.65
68511;SHT31;55512;50.102;19.958;2023-05-20T09:27:56;18.84;70.52
68511;SHT31;55512;50.102;19.958;2023-05-20T09:30:22;18.89;70.38
68511;SHT31;55512;50.102;19.958;2023-05-20T09:32:54;18.93;70.30
68511;SHT31;55512;50.102;19.958;2023-05-20T09:35:22;18.97;70.18
68511;SHT31;55512;50.102;19.958;2023-05-20T09:37:52;18.99;70.15
68511;SHT31;55512;50.102;19.958;2023-05-20T09:40:24;19.04;70.12
68511;SHT31;55512;50.102;19.958;2023-05-20T09:42:56;19.09;69.97
68511;SHT31;55512;50.102;19.958;2023-05-20T09:45:27;19.14;69.83
68511;SHT31;55512;50.102;19.958;2023-05-20T09:47:54;19.18;69.69
68511;SHT31;55512;50.102;19.958;2023-05-20T09:50:21;19.23;69.57
68511;SHT31;55512;50.102;19.958;2023-05-20T09:52:49;19.29;69.49
68511;SHT31;55512;50.102;19.958;2023-05-20T09:55:17;19.34;69.40
68511;SHT31;55512;50.102;19.958;2023-05-20T09:57:44;19.47;69.26
68511;SHT31;55512;50.102;19.958;2023-05-20T10:00:11;19.60;69.00
68511;SHT31;55512;50.102;19.958;2023-05-20T10:02:43;19.72;68.67
68511;SHT31;55512;50.102;19.958;2023-05-20T10:05:18;19.76;68.32
68511;SHT31;55512;50.102;19.958;2023-05-20T10:07:58;19.82;68.29
68511;SHT31;55512;50.102;19.958;2023-05-20T10:17:02;20.07;67.74
68511;SHT31;55512;50.102;19.958;2023-05-20T10:19:37;20.16;67.54
68511;SHT31;55512;50.102;19.958;2023-05-20T10:22:04;20.23;67.37
68511;SHT31;55512;50.102;19.958;2023-05-20T10:24:39;20.31;67.17
68511;SHT31;55512;50.102;19.958;2023-05-20T10:27:13;20.40;66.96
68511;SHT31;55512;50.102;19.958;2023-05-20T10:29:43;20.52;66.70
68511;SHT31;55512;50.102;19.958;2023-05-20T10:32:22;20.65;66.54
68511;SHT31;55512;50.102;19.958;2023-05-20T10:34:49;20.72;66.16
68511;SHT31;55512;50.102;19.958;2023-05-20T10:37:28;20.73;65.90
68511;SHT31;55512;50.102;19.958;2023-05-20T10:42:39;20.83;65.48
68511;SHT31;55512;50.102;19.958;2023-05-20T10:45:06;20.92;65.31
68511;SHT31;55512;50.102;19.958;2023-05-20T10:47:34;21.01;65.03
68511;SHT31;55512;50.102;19.958;2023-05-20T10:50:00;21.10;64.87
68511;SHT31;55512;50.102;19.958;2023-05-20T10:52:31;21.22;64.70
68511;SHT31;55512;50.102;19.958;2023-05-20T10:55:01;21.31;64.62
68511;SHT31;55512;50.102;19.958;2023-05-20T10:57:28;21.39;64.55
68511;SHT31;55512;50.102;19.958;2023-05-20T10:59:56;21.48;64.37
68511;SHT31;55512;50.102;19.958;2023-05-20T11:02:23;21.56;64.01
68511;SHT31;55512;50.102;19.958;2023-05-20T11:04:52;21.64;63.81
68511;SHT31;55512;50.102;19.958;2023-05-20T11:07:25;21.70;63.62
68511;SHT31;55512;50.102;19.958;2023-05-20T11:09:53;21.80;63.44
68511;SHT31;55512;50.102;19.958;2023-05-20T11:12:23;21.95;63.07
68511;SHT31;55512;50.102;19.958;2023-05-20T11:14:50;22.06;62.79
68511;SHT31;55512;50.102;19.958;2023-05-20T11:17:16;22.18;62.58
68511;SHT31;55512;50.102;19.958;2023-05-20T11:19:43;22.32;62.19
68511;SHT31;55512;50.102;19.958;2023-05-20T11:22:10;22.43;62.03
68511;SHT31;55512;50.102;19.958;2023-05-20T11:24:36;22.50;61.92
68511;SHT31;55512;50.102;19.958;2023-05-20T11:27:02;22.57;61.88
68511;SHT31;55512;50.102;19.958;2023-05-20T11:29:28;22.67;61.77
68511;SHT31;55512;50.102;19.958;2023-05-20T11:31:56;22.77;61.43
68511;SHT31;55512;50.102;19.958;2023-05-20T11:34:23;22.87;61.01
68511;SHT31;55512;50.102;19.958;2023-05-20T11:36:56;22.93;60.63
68511;SHT31;55512;50.102;19.958;2023-05-20T11:39:23;23.00;60.44
68511;SHT31;55512;50.102;19.958;2023-05-20T11:41:51;23.10;59.98
68511;SHT31;55512;50.102;19.958;2023-05-20T11:44:18;23.21;59.60
68511;SHT31;55512;50.102;19.958;2023-05-20T11:46:45;23.32;59.47
68511;SHT31;55512;50.102;19.958;2023-05-20T11:49:15;23.40;59.57
68511;SHT31;55512;50.102;19.958;2023-05-20T11:51:41;23.48;59.50
68511;SHT31;55512;50.102;19.958;2023-05-20T11:54:08;23.58;59.18
68511;SHT31;55512;50.102;19.958;2023-05-20T11:56:38;23.65;58.89
68511;SHT31;55512;50.102;19.958;2023-05-20T11:59:07;23.76;58.59
68511;SHT31;55512;50.102;19.958;2023-05-20T12:01:35;23.85;58.61
68511;SHT31;55512;50.102;19.958;2023-05-20T12:04:09;23.98;58.32
68511;SHT31;55512;50.102;19.958;2023-05-20T12:06:40;24.11;58.13
68511;SHT31;55512;50.102;19.958;2023-05-20T12:09:07;24.24;57.67
68511;SHT31;55512;50.102;19.958;2023-05-20T12:11:34;24.32;57.29
68511;SHT31;55512;50.102;19.958;2023-05-20T12:14:02;24.35;57.26
68511;SHT31;55512;50.102;19.958;2023-05-20T12:16:29;24.43;57.29
68511;SHT31;55512;50.102;19.958;2023-05-20T12:18:56;24.50;57.11
68511;SHT31;55512;50.102;19.958;2023-05-20T12:21:22;24.59;56.86
68511;SHT31;55512;50.102;19.958;2023-05-20T12:23:48;24.65;56.81
68511;SHT31;55512;50.102;19.958;2023-05-20T12:26:14;24.72;56.65
68511;SHT31;55512;50.102;19.958;2023-05-20T12:28:40;24.79;56.54
68511;SHT31;55512;50.102;19.958;2023-05-20T12:31:05;24.85;56.09
68511;SHT31;55512;50.102;19.958;2023-05-20T12:33:31;24.86;56.28
68511;SHT31;55512;50.102;19.958;2023-05-20T12:35:57;24.91;56.78
68511;SHT31;55512;50.102;19.958;2023-05-20T12:38:22;25.05;56.70
68511;SHT31;55512;50.102;19.958;2023-05-20T12:40:48;25.18;56.39
68511;SHT31;55512;50.102;19.958;2023-05-20T12:43:14;25.29;56.20
68511;SHT31;55512;50.102;19.958;2023-05-20T12:45:39;25.38;55.80
68511;SHT31;55512;50.102;19.958;2023-05-20T12:48:05;25.42;55.56
68511;SHT31;55512;50.102;19.958;2023-05-20T12:50:31;25.48;55.47
68511;SHT31;55512;50.102;19.958;2023-05-20T12:52:57;25.56;55.24
68511;SHT31;55512;50.102;19.958;2023-05-20T12:55:22;25.64;54.93
68511;SHT31;55512;50.102;19.958;2023-05-20T12:57:48;25.70;55.01
68511;SHT31;55512;50.102;19.958;2023-05-20T13:00:14;25.81;54.68
68511;SHT31;55512;50.102;19.958;2023-05-20T13:02:40;25.85;54.06
68511;SHT31;55512;50.102;19.958;2023-05-20T13:05:07;25.88;54.34
68511;SHT31;55512;50.102;19.958;2023-05-20T13:07:34;26.01;54.51
68511;SHT31;55512;50.102;19.958;2023-05-20T13:10:00;26.17;54.36
68511;SHT31;55512;50.102;19.958;2023-05-20T13:12:26;26.31;53.87
68511;SHT31;55512;50.102;19.958;2023-05-20T13:14:51;26.46;53.68
68511;SHT31;55512;50.102;19.958;2023-05-20T13:17:17;26.58;53.23
68511;SHT31;55512;50.102;19.958;2023-05-20T13:19:43;26.61;52.64
68511;SHT31;55512;50.102;19.958;2023-05-20T13:22:12;26.62;52.79
68511;SHT31;55512;50.102;19.958;2023-05-20T13:24:38;26.75;53.32
68511;SHT31;55512;50.102;19.958;2023-05-20T13:27:04;26.90;53.41
68511;SHT31;55512;50.102;19.958;2023-05-20T13:29:30;27.06;53.08
68511;SHT31;55512;50.102;19.958;2023-05-20T13:31:55;27.23;52.62
68511;SHT31;55512;50.102;19.958;2023-05-20T13:34:21;27.36;52.11
68511;SHT31;55512;50.102;19.958;2023-05-20T13:36:47;27.47;51.82
68511;SHT31;55512;50.102;19.958;2023-05-20T13:39:13;27.54;51.65
68511;SHT31;55512;50.102;19.958;2023-05-20T13:41:39;27.63;51.50
68511;SHT31;55512;50.102;19.958;2023-05-20T13:44:05;27.72;51.38
68511;SHT31;55512;50.102;19.958;2023-05-20T13:46:31;27.77;51.36
68511;SHT31;55512;50.102;19.958;2023-05-20T13:48:57;27.85;51.27
68511;SHT31;55512;50.102;19.958;2023-05-20T13:51:22;27.94;51.01
68511;SHT31;55512;50.102;19.958;2023-05-20T13:53:48;28.04;50.91
68511;SHT31;55512;50.102;19.958;2023-05-20T13:56:14;28.11;50.65
68511;SHT31;55512;50.102;19.958;2023-05-20T13:58:40;28.23;50.40
68511;SHT31;55512;50.102;19.958;2023-05-20T14:01:06;28.37;50.18
68511;SHT31;55512;50.102;19.958;2023-05-20T14:03:31;28.51;50.18
68511;SHT31;55512;50.102;19.958;2023-05-20T14:05:58;28.68;50.07
68511;SHT31;55512;50.102;19.958;2023-05-20T14:08:25;28.83;49.68
68511;SHT31;55512;50.102;19.958;2023-05-20T14:10:51;28.94;49.22
68511;SHT31;55512;50.102;19.958;2023-05-20T14:13:20;29.07;49.07
68511;SHT31;55512;50.102;19.958;2023-05-20T14:18:43;29.28;48.29
68511;SHT31;55512;50.102;19.958;2023-05-20T14:21:10;29.42;48.11
68511;SHT31;55512;50.102;19.958;2023-05-20T14:23:36;29.55;47.85
68511;SHT31;55512;50.102;19.958;2023-05-20T14:26:01;29.71;47.58
68511;SHT31;55512;50.102;19.958;2023-05-20T14:28:27;29.88;47.15
68511;SHT31;55512;50.102;19.958;2023-05-20T14:30:52;30.03;46.65
68511;SHT31;55512;50.102;19.958;2023-05-20T14:33:18;30.09;46.10
68511;SHT31;55512;50.102;19.958;2023-05-20T14:35:44;30.22;46.36
68511;SHT31;55512;50.102;19.958;2023-05-20T14:38:10;30.50;46.18
68511;SHT31;55512;50.102;19.958;2023-05-20T14:40:35;30.82;45.55
68511;SHT31;55512;50.102;19.958;2023-05-20T14:43:01;31.10;44.99
68511;SHT31;55512;50.102;19.958;2023-05-20T14:45:27;31.52;44.44
68511;SHT31;55512;50.102;19.958;2023-05-20T14:47:52;32.26;43.01
68511;SHT31;55512;50.102;19.958;2023-05-20T14:50:18;33.34;40.97
68511;SHT31;55512;50.102;19.958;2023-05-20T14:52:43;34.69;39.76
68511;SHT31;55512;50.102;19.958;2023-05-20T14:55:09;36.21;38.20
68511;SHT31;55512;50.102;19.958;2023-05-20T14:57:34;37.58;36.54
68511;SHT31;55512;50.102;19.958;2023-05-20T15:00:00;38.63;35.50
68511;SHT31;55512;50.102;19.958;2023-05-20T15:02:26;39.57;34.08
68511;SHT31;55512;50.102;19.958;2023-05-20T15:04:51;40.49;32.80
68511;SHT31;55512;50.102;19.958;2023-05-20T15:07:17;41.32;31.47
68511;SHT31;55512;50.102;19.958;2023-05-20T15:09:42;42.05;30.50
68511;SHT31;55512;50.102;19.958;2023-05-20T15:12:08;42.81;29.70
68511;SHT31;55512;50.102;19.958;2023-05-20T15:14:35;43.52;28.77
68511;SHT31;55512;50.102;19.958;2023-05-20T15:17:01;43.92;28.23
68511;SHT31;55512;50.102;19.958;2023-05-20T15:19:29;44.26;27.63
68511;SHT31;55512;50.102;19.958;2023-05-20T15:21:56;44.56;27.18
68511;SHT31;55512;50.102;19.958;2023-05-20T15:24:22;44.83;26.78
68511;SHT31;55512;50.102;19.958;2023-05-20T15:26:48;45.08;26.37
68511;SHT31;55512;50.102;19.958;2023-05-20T15:29:13;45.27;26.08
68511;SHT31;55512;50.102;19.958;2023-05-20T15:31:39;45.53;25.74
68511;SHT31;55512;50.102;19.958;2023-05-20T15:34:05;45.68;25.31